首页
METAR-TAF:

METAR-TAF

机场 :

内塔吉·苏巴斯·钱德拉·鲍斯国际机场

加尔各答, 印度

纬度: 22-39N, 经度: 088-27E, 海拔: 4米

当前天气观测

该预报发布于22分钟前的17:30 UTC
风速5节,风向南转西南
温度 29°C
湿度 84%
气压 1001 hPa
能見度: 3200
少量云层高于2000英尺
散云层高于10000英尺

METAR: VECC 231730Z 20005KT 3200 HZ FEW020 SCT100 29/26 Q1001 NOSIG

时间: 23:22 (17:52 UTC)

预报

该预报发布于52分钟前的17:00 UTC
预报有效从23日的 18点(UTC)到 24日的 24点(UTC)
风速8节,风向
能見度: 3200
散云层高于2000英尺
散云层高于10000英尺
成为
从 23日的 22点(UTC)到 23日的 24点(UTC)
能見度: 2600
成为
从 24日的 02点(UTC)到 24日的 04点(UTC)
能見度: 3500
短暂存在
从 24日的 08点(UTC)到 24日的 12点(UTC)
能見度: 2000
散云层高于1500英尺
少量云层高于2500英尺, 积雨云.
多云层高于9000英尺
雷暴, 雨
成为
从 24日的 20点(UTC)到 24日的 22点(UTC)
能見度: 2800

TAF: VECC 231700Z 2318/2424 18008KT 3200 HZ SCT020 SCT100 BECMG 2322/2324 2600 HZ BECMG 2402/2404 3500 HZ TEMPO 2408/2412 2000 TSRA SCT015 FEW025CB BKN090 BECMG 2420/2422 2800 HZ

超过4000个机场的气象观测和天气预报(METAR&TAF报告)。

可查询的气象台以黄色和红色小点在地图上表示。

将鼠标移到小点上方,可查看气象台名称。

然后点击查看天气观测和预报。

如需切换地图:点击带黑十字的绿色按钮放大地图;点击带横线的绿色按钮缩小地图;或者点击绿色箭头查看邻近地区的地图。


METAR-TAF: